Time;durP1;ratioP1;P1;durP2;ratioP2;P2;SDS_P1;SDS_P2;PMS_P1;PMS_P2;Temp;Humidity;BMP_temperature;BMP_pressure;BME280_temperature;BME280_humidity;BME280_pressure;Samples;Min_cycle;Max_cycle;Signal;HPM_P1;HPM_P2
2021/03/21 00:01:46;;;;;;;20.93;12.97;;;;;;;-0.74;62.55;97422.97;1708235;82;21193;-76
2021/03/21 00:04:15;;;;;;;18.13;10.33;;;;;;;-0.77;62.46;97424.34;1714771;83;21186;-75
2021/03/21 00:06:45;;;;;;;23.07;14.03;;;;;;;-0.83;62.38;97424.08;1709208;83;21131;-77
2021/03/21 00:09:16;;;;;;;21.27;11.47;;;;;;;-0.87;62.39;97421.16;1718272;82;21184;-76
2021/03/21 00:11:45;;;;;;;18.83;12.73;;;;;;;-0.91;62.33;97416.98;1731927;82;21345;-84
2021/03/21 00:14:17;;;;;;;19.63;10.67;;;;;;;-0.93;62.42;97411.86;1743322;82;21127;-77
2021/03/21 00:16:46;;;;;;;18.57;10.23;;;;;;;-0.96;62.38;97411.48;1706953;82;21138;-75
2021/03/21 00:19:14;;;;;;;21.07;11.90;;;;;;;-0.98;62.43;97405.52;1704503;83;21186;-80
2021/03/21 00:21:42;;;;;;;21.03;11.33;;;;;;;-0.98;62.55;97413.28;1686806;84;21167;-82
2021/03/21 00:24:10;;;;;;;18.70;10.80;;;;;;;-0.99;62.46;97414.17;1722730;82;21290;-87
2021/03/21 00:26:40;;;;;;;22.87;10.60;;;;;;;-1.01;62.48;97406.89;1687516;83;21511;-76
2021/03/21 00:29:07;;;;;;;24.30;12.53;;;;;;;-1.03;62.47;97409.13;1723023;81;21293;-87
2021/03/21 00:31:35;;;;;;;19.60;11.60;;;;;;;-1.07;62.54;97404.49;1716543;83;21123;-77
2021/03/21 00:34:05;;;;;;;24.60;11.67;;;;;;;-1.11;62.63;97400.28;1724882;83;21167;-76
2021/03/21 00:36:32;;;;;;;20.30;11.53;;;;;;;-1.14;62.51;97393.89;1729552;83;21203;-74
2021/03/21 00:39:01;;;;;;;21.10;11.17;;;;;;;-1.17;62.70;97397.88;1722120;82;21278;-74
2021/03/21 00:41:30;;;;;;;16.13;9.33;;;;;;;-1.22;62.64;97394.56;1716113;83;21187;-75
2021/03/21 00:43:58;;;;;;;18.97;11.33;;;;;;;-1.25;62.76;97390.33;1715900;83;21636;-74
2021/03/21 00:46:32;;;;;;;19.60;9.30;;;;;;;-1.29;62.73;97386.98;1737698;81;21216;-74
2021/03/21 00:49:00;;;;;;;19.03;11.30;;;;;;;-1.32;62.85;97388.81;1695718;83;21172;-77
2021/03/21 00:51:28;;;;;;;19.50;10.97;;;;;;;-1.40;62.88;97385.13;1677582;84;21160;-75
2021/03/21 00:53:56;;;;;;;20.00;10.63;;;;;;;-1.45;62.91;97380.55;1721429;83;21726;-73
2021/03/21 00:56:37;;;;;;;16.43;9.90;;;;;;;-1.46;63.12;97387.90;1721134;83;21168;-76
2021/03/21 00:59:06;;;;;;;23.10;10.47;;;;;;;-1.48;63.07;97387.08;1714701;81;21172;-76
2021/03/21 01:01:35;;;;;;;19.57;10.93;;;;;;;-1.47;63.26;97381.03;1717301;81;21577;-80
2021/03/21 01:04:04;;;;;;;20.10;10.83;;;;;;;-1.49;63.26;97381.51;1681856;84;21471;-76
2021/03/21 01:06:34;;;;;;;20.73;10.13;;;;;;;-1.53;63.22;97376.03;1680121;84;21328;-76
2021/03/21 01:09:08;;;;;;;17.57;11.40;;;;;;;-1.54;63.16;97370.00;1697345;84;21303;-74
2021/03/21 01:11:38;;;;;;;19.13;10.47;;;;;;;-1.55;63.18;97364.87;1695532;83;21275;-74
2021/03/21 01:14:07;;;;;;;17.80;9.50;;;;;;;-1.58;63.14;97357.59;1703186;83;21294;-76
2021/03/21 01:16:39;;;;;;;18.67;10.37;;;;;;;-1.61;63.11;97362.84;1694179;83;21243;-77
2021/03/21 01:19:15;;;;;;;18.97;10.73;;;;;;;-1.63;63.15;97359.91;1694028;83;21172;-75
2021/03/21 01:21:44;;;;;;;18.83;9.93;;;;;;;-1.66;63.17;97365.14;1724425;82;21186;-76
2021/03/21 01:24:15;;;;;;;19.70;11.57;;;;;;;-1.65;63.22;97364.27;1729999;82;21251;-75
2021/03/21 01:26:43;;;;;;;19.47;10.80;;;;;;;-1.64;63.27;97362.95;1711136;83;21195;-74
2021/03/21 01:29:11;;;;;;;14.90;10.23;;;;;;;-1.66;63.23;97366.02;1732689;81;21147;-76
2021/03/21 01:31:39;;;;;;;22.20;12.00;;;;;;;-1.68;63.29;97361.32;1731452;82;21167;-75
2021/03/21 01:34:14;;;;;;;18.87;9.97;;;;;;;-1.70;63.30;97364.38;1694448;83;21153;-76
2021/03/21 01:36:44;;;;;;;18.63;10.33;;;;;;;-1.70;63.27;97363.55;1701711;83;21215;-77
2021/03/21 01:39:24;;;;;;;17.37;10.20;;;;;;;-1.78;63.46;97359.44;1684250;83;21160;-74
2021/03/21 01:42:01;;;;;;;25.73;11.70;;;;;;;-1.83;63.37;97356.57;1682597;84;21204;-76
2021/03/21 01:44:29;;;;;;;22.37;10.45;;;;;;;-1.87;63.43;97351.93;1696934;83;21262;-79
2021/03/21 01:47:02;;;;;;;18.87;9.07;;;;;;;-1.89;63.31;97349.37;1691643;83;21136;-79
2021/03/21 01:49:44;;;;;;;17.40;9.77;;;;;;;-1.90;63.48;97350.25;1691518;83;21278;-74
2021/03/21 01:52:39;;;;;;;22.00;10.63;;;;;;;-1.95;63.23;97347.41;1703099;83;21274;-75
2021/03/21 01:55:12;;;;;;;20.17;10.63;;;;;;;-2.00;63.29;97346.23;1697630;83;21276;-74
2021/03/21 01:57:42;;;;;;;17.50;10.27;;;;;;;-2.02;63.27;97342.84;1681756;83;21168;-76
2021/03/21 02:00:12;;;;;;;17.10;9.33;;;;;;;-2.02;63.29;97343.27;1687925;83;21152;-77
2021/03/21 02:02:42;;;;;;;16.07;9.33;;;;;;;-2.04;63.24;97345.90;1675814;84;21522;-75
2021/03/21 02:05:15;;;;;;;19.13;9.83;;;;;;;-2.06;63.27;97344.66;1698847;83;21407;-76
2021/03/21 02:08:02;;;;;;;21.53;9.67;;;;;;;-2.06;63.30;97342.08;1693775;83;21263;-77
2021/03/21 02:11:06;;;;;;;18.10;10.13;;;;;;;-2.07;63.37;97340.37;1669192;84;21226;-77
2021/03/21 02:13:57;;;;;;;18.33;9.97;;;;;;;-2.12;63.22;97346.09;1645172;87;21635;-76
2021/03/21 02:16:50;;;;;;;18.30;10.07;;;;;;;-2.16;63.33;97346.20;1643889;86;21307;-74
2021/03/21 02:19:54;;;;;;;21.07;11.13;;;;;;;-2.17;63.41;97343.21;1642024;86;21244;-76
2021/03/21 02:22:29;;;;;;;16.13;9.17;;;;;;;-2.15;63.34;97332.41;1632455;87;21208;-78
2021/03/21 02:25:31;;;;;;;16.73;8.93;;;;;;;-2.18;63.17;97333.80;1651625;86;21148;-77
2021/03/21 02:28:47;;;;;;;16.57;9.83;;;;;;;-2.10;63.19;97330.56;1951185;73;24668;-76
2021/03/21 02:31:41;;;;;;;18.70;9.20;;;;;;;-2.19;63.12;97331.64;1910292;75;21100;-77
2021/03/21 02:34:23;;;;;;;15.33;7.53;;;;;;;-2.18;63.16;97326.05;1914728;75;21111;-78
2021/03/21 02:37:05;;;;;;;17.90;9.30;;;;;;;-2.20;63.09;97333.39;1834072;78;21166;-78
2021/03/21 02:39:53;;;;;;;15.70;8.07;;;;;;;-2.25;62.96;97329.22;1862008;77;21251;-77
2021/03/21 02:42:33;;;;;;;20.43;9.97;;;;;;;-2.30;63.09;97328.47;1833956;78;21265;-77
2021/03/21 02:45:18;;;;;;;14.23;8.10;;;;;;;-2.30;63.06;97328.47;1861418;77;21128;-77
2021/03/21 02:47:49;;;;;;;14.53;8.50;;;;;;;-2.30;63.11;97327.18;1860765;77;21127;-78
2021/03/21 02:50:35;;;;;;;16.73;8.33;;;;;;;-2.30;62.99;97328.05;1869442;77;21116;-77
2021/03/21 02:53:26;;;;;;;14.93;8.17;;;;;;;-2.33;63.04;97324.69;1873432;77;21104;-77
2021/03/21 02:55:59;;;;;;;17.07;8.27;;;;;;;-2.34;63.01;97321.25;1843655;77;21139;-77
2021/03/21 02:58:40;;;;;;;15.97;7.77;;;;;;;-2.33;63.03;97325.98;1854810;77;21807;-76
2021/03/21 03:01:20;;;;;;;14.80;8.47;;;;;;;-2.34;63.02;97333.33;1818176;78;21159;-78
2021/03/21 03:03:52;;;;;;;19.43;9.97;;;;;;;-2.38;62.86;97317.89;1818007;79;21221;-77
2021/03/21 03:06:25;;;;;;;17.13;9.43;;;;;;;-2.39;62.87;97325.69;1818217;79;21159;-78
2021/03/21 03:08:58;;;;;;;16.97;9.43;;;;;;;-2.44;62.93;97321.93;1825600;79;21277;-76
2021/03/21 03:11:43;;;;;;;15.97;8.47;;;;;;;-2.43;62.99;97317.60;1818106;79;21229;-77
2021/03/21 03:14:27;;;;;;;15.28;8.28;;;;;;;-2.47;63.07;97319.41;1818431;79;21254;-77
2021/03/21 03:17:05;;;;;;;19.70;9.07;;;;;;;-2.51;63.18;97318.64;1845768;77;21123;-77
2021/03/21 03:19:51;;;;;;;13.57;7.80;;;;;;;-2.47;63.08;97327.62;1840548;78;21265;-75
2021/03/21 03:22:36;;;;;;;45.10;11.03;;;;;;;-2.47;63.08;97320.70;1807051;79;21138;-76
2021/03/21 03:25:50;;;;;;;16.63;8.60;;;;;;;-2.52;62.91;97315.66;1840071;78;21262;-77
2021/03/21 03:28:38;;;;;;;16.83;8.83;;;;;;;-2.55;62.93;97314.43;1781612;79;21151;-78
2021/03/21 03:31:23;;;;;;;14.37;8.50;;;;;;;-2.55;62.99;97307.97;1784353;79;21163;-77
2021/03/21 03:33:54;;;;;;;;;;;;;;;-2.56;62.93;97302.44;1811607;79;21265;-78
2021/03/21 03:36:23;;;;;;;18.20;9.53;;;;;;;-2.59;62.64;97304.21;1804225;79;20139;-79
2021/03/21 03:38:52;;;;;;;16.50;9.13;;;;;;;-2.58;62.77;97305.48;1802505;80;21347;-77
2021/03/21 03:42:00;;;;;;;17.63;9.33;;;;;;;-2.58;62.78;97296.45;1795398;80;21344;-77
2021/03/21 03:44:48;;;;;;;19.97;9.60;;;;;;;-2.59;62.78;97300.34;1802140;80;21270;-77
2021/03/21 03:47:30;;;;;;;16.93;9.13;;;;;;;-2.62;62.71;97296.56;1790494;80;21313;-77
2021/03/21 03:50:26;;;;;;;24.02;10.15;;;;;;;-2.54;62.73;97294.64;1826481;77;24676;-76
2021/03/21 03:53:11;;;;;;;18.67;9.43;;;;;;;-2.61;62.70;97292.64;1830626;78;21727;-78
2021/03/21 03:55:57;;;;;;;15.63;9.28;;;;;;;-2.63;62.64;97291.83;1830906;78;21120;-77
2021/03/21 03:58:36;;;;;;;17.90;9.53;;;;;;;-2.62;62.75;97291.41;1830789;78;21242;-77
2021/03/21 04:01:16;;;;;;;16.53;9.30;;;;;;;-2.66;62.72;97279.02;1801105;78;21140;-77
2021/03/21 04:03:57;;;;;;;15.63;8.93;;;;;;;-2.63;62.75;97284.55;1798764;80;21130;-77
2021/03/21 04:07:00;;;;;;;17.77;9.93;;;;;;;-2.69;62.60;97282.50;1798507;80;21269;-76
2021/03/21 04:09:36;;;;;;;16.87;9.17;;;;;;;-2.68;62.66;97280.78;1798732;80;21170;-78
2021/03/21 04:12:09;;;;;;;18.20;9.57;;;;;;;-2.67;62.46;97276.03;1798625;80;21159;-78
2021/03/21 04:14:44;;;;;;;15.47;8.90;;;;;;;-2.73;62.32;97282.19;1799080;80;21132;-77
2021/03/21 04:17:34;;;;;;;16.17;9.17;;;;;;;-2.80;62.35;97281.06;1801193;80;21234;-75
2021/03/21 04:20:13;;;;;;;14.97;7.80;;;;;;;-2.95;62.26;97263.79;1720670;83;21164;-78
2021/03/21 04:22:59;;;;;;;16.90;8.50;;;;;;;-2.93;62.45;97277.51;1720547;83;21136;-77
2021/03/21 04:25:48;;;;;;;17.98;9.33;;;;;;;-2.90;62.48;97275.30;1782903;78;25157;-79
2021/03/21 04:28:54;;;;;;;16.47;7.97;;;;;;;-2.97;62.54;97269.42;1757203;82;21231;-78
2021/03/21 04:31:22;;;;;;;15.17;8.20;;;;;;;-2.99;62.49;97272.05;1757810;82;21108;-80
2021/03/21 04:33:59;;;;;;;15.63;8.10;;;;;;;-2.97;62.61;97273.29;1757431;82;21149;-78
2021/03/21 04:36:39;;;;;;;13.90;7.70;;;;;;;-3.00;62.58;97270.77;1727454;82;21131;-75
2021/03/21 04:39:14;;;;;;;12.83;8.00;;;;;;;-2.90;62.50;97281.28;1756701;82;21242;-81
2021/03/21 04:41:50;;;;;;;15.10;8.33;;;;;;;-2.87;62.30;97282.52;1757492;82;21129;-77
2021/03/21 04:44:26;;;;;;;14.57;7.97;;;;;;;-2.86;62.05;97284.64;1728221;82;21255;-78
2021/03/21 04:47:06;;;;;;;16.07;8.53;;;;;;;-2.84;62.08;97285.45;1756834;82;21121;-76
2021/03/21 04:49:37;;;;;;;16.60;8.60;;;;;;;-2.79;62.10;97287.50;1739383;82;21160;-76
2021/03/21 04:52:30;;;;;;;15.37;8.00;;;;;;;-2.77;61.89;97279.72;1682658;85;21168;-76
2021/03/21 04:54:59;;;;;;;12.63;7.63;;;;;;;-2.75;61.99;97280.08;1688583;82;21172;-78
2021/03/21 04:57:50;;;;;;;15.37;8.67;;;;;;;-2.73;62.08;97282.19;1678605;85;21101;-82
2021/03/21 05:00:35;;;;;;;15.30;7.93;;;;;;;-2.70;61.99;97283.41;1679247;84;21234;-77
2021/03/21 05:03:29;;;;;;;10.87;6.43;;;;;;;-2.70;61.84;97278.25;1688945;82;21305;-77
2021/03/21 05:06:07;;;;;;;14.37;7.73;;;;;;;-2.70;62.02;97282.55;1687132;85;21104;-78
2021/03/21 05:08:46;;;;;;;11.53;6.50;;;;;;;-2.70;61.78;97279.97;1655750;86;21275;-80
2021/03/21 05:11:15;;;;;;;18.07;7.73;;;;;;;-2.65;61.98;97279.85;1661216;86;21275;-78
2021/03/21 05:14:01;;;;;;;13.67;7.23;;;;;;;-2.61;61.40;97275.88;1661473;86;21157;-78
2021/03/21 05:16:52;;;;;;;13.97;6.27;;;;;;;-2.55;61.59;97275.70;1659295;86;21295;-76
2021/03/21 05:19:46;;;;;;;13.73;8.40;;;;;;;-2.51;61.84;97272.64;1660148;86;21189;-80
2021/03/21 05:22:40;;;;;;;15.20;7.50;;;;;;;-2.43;61.41;97267.26;1660039;86;21355;-77
2021/03/21 05:25:29;;;;;;;15.03;8.70;;;;;;;-2.43;61.51;97262.09;1653815;85;21347;-76
2021/03/21 05:28:23;;;;;;;15.60;7.87;;;;;;;-2.37;61.13;97269.25;1686149;85;21168;-83
2021/03/21 05:30:53;;;;;;;12.97;7.00;;;;;;;-2.31;60.97;97266.95;1695367;84;21267;-77
2021/03/21 05:33:20;;;;;;;12.77;7.17;;;;;;;-2.12;61.69;97271.63;1699650;83;21126;-79
2021/03/21 05:35:51;;;;;;;15.27;8.43;;;;;;;-1.78;61.88;97268.12;1691638;84;21134;-79
2021/03/21 05:38:45;;;;;;;18.17;8.70;;;;;;;-1.38;60.78;97263.53;1692363;84;21275;-78
2021/03/21 05:41:42;;;;;;;13.83;8.43;;;;;;;-0.99;59.80;97263.22;1683286;85;21162;-82
2021/03/21 05:44:23;;;;;;;;;;;;;;;-0.50;59.15;97262.08;1648377;85;21122;-81
2021/03/21 05:47:38;;;;;;;20.13;9.90;;;;;;;-0.01;56.03;97262.17;1695994;83;20152;-78
2021/03/21 05:50:43;;;;;;;16.93;8.63;;;;;;;0.48;56.95;97259.55;1713864;83;21162;-84
2021/03/21 05:53:49;;;;;;;16.00;8.73;;;;;;;0.93;57.64;97260.44;1663775;86;21188;-78
2021/03/21 05:56:40;;;;;;;15.37;9.27;;;;;;;1.40;53.82;97259.47;1663501;86;21628;-82
2021/03/21 05:59:25;;;;;;;14.35;8.48;;;;;;;1.82;55.92;97264.25;1664944;85;21261;-87
2021/03/21 06:02:34;;;;;;;14.13;8.05;;;;;;;2.35;52.66;97264.13;1821931;77;24882;-81
2021/03/21 06:05:46;;;;;;;15.30;9.50;;;;;;;2.67;55.91;97257.92;1791127;80;21196;-81
2021/03/21 06:08:38;;;;;;;15.40;9.53;;;;;;;3.09;54.29;97252.08;1764326;81;21165;-79
2021/03/21 06:11:59;;;;;;;18.62;8.90;;;;;;;3.51;51.55;97243.55;1819493;78;21150;-80
2021/03/21 06:15:05;;;;;;;17.20;9.58;;;;;;;3.62;51.93;97240.44;1761997;81;21529;-82
2021/03/21 06:17:44;;;;;;;12.53;8.70;;;;;;;3.74;50.65;97246.32;1717328;83;21182;-83
2021/03/21 06:20:46;;;;;;;18.77;9.28;;;;;;;4.07;50.19;97245.54;1765287;81;21568;-80
2021/03/21 06:24:11;;;;;;;17.75;9.80;;;;;;;4.19;51.05;97251.88;1761377;81;21605;-81
2021/03/21 06:27:09;;;;;;;12.65;8.60;;;;;;;4.36;49.96;97247.92;1700087;84;21194;-80
2021/03/21 06:30:06;;;;;;;15.18;9.85;;;;;;;4.58;50.59;97253.31;1711031;84;21570;-83
2021/03/21 06:33:10;;;;;;;17.40;10.48;;;;;;;5.04;48.70;97249.13;1728266;81;21160;-84
2021/03/21 06:35:59;;;;;;;14.18;8.58;;;;;;;5.47;49.45;97245.39;1728943;81;21632;-83
2021/03/21 06:38:55;;;;;;;14.55;9.25;;;;;;;5.81;48.75;97251.27;1750501;81;21148;-83
2021/03/21 06:42:03;;;;;;;13.22;8.23;;;;;;;5.90;47.81;97248.11;1734220;81;21586;-84
2021/03/21 06:45:25;;;;;;;14.15;9.10;;;;;;;6.08;43.69;97243.61;1752941;81;21537;-82
2021/03/21 06:48:23;;;;;;;18.02;10.50;;;;;;;6.22;47.70;97240.16;1745155;81;21590;-83
2021/03/21 06:51:04;;;;;;;14.25;8.15;;;;;;;6.33;44.24;97232.95;1731141;83;21173;-85
2021/03/21 06:53:59;;;;;;;16.12;9.28;;;;;;;6.56;46.47;97231.55;1763130;81;21251;-87
2021/03/21 06:56:32;;;;;;;12.68;8.45;;;;;;;6.55;46.05;97235.58;1769291;81;21143;-86
2021/03/21 06:59:34;;;;;;;16.30;9.03;;;;;;;6.78;45.99;97228.91;1758836;81;21658;-80
2021/03/21 07:03:01;;;;;;;15.05;8.70;;;;;;;6.74;45.28;97226.58;1700734;82;21164;-81
2021/03/21 07:05:45;;;;;;;15.85;10.35;;;;;;;6.98;44.02;97224.19;1721874;82;21196;-85
2021/03/21 07:08:37;;;;;;;14.18;9.18;;;;;;;7.10;44.34;97228.63;1717095;82;21186;-82
2021/03/21 07:11:22;;;;;;;13.30;9.28;;;;;;;7.38;43.12;97226.84;1723012;82;21613;-84
2021/03/21 07:14:39;;;;;;;14.70;9.48;;;;;;;7.88;42.86;97230.16;1725233;82;21128;-83
2021/03/21 07:17:50;;;;;;;13.83;9.28;;;;;;;8.03;41.45;97223.86;1729651;82;21188;-80
2021/03/21 07:21:02;;;;;;;17.12;9.35;;;;;;;8.25;42.69;97223.72;1672405;83;21560;-82
2021/03/21 07:24:17;;;;;;;15.32;9.48;;;;;;;8.43;41.26;97220.30;1730996;82;21595;-80
2021/03/21 07:27:20;;;;;;;17.67;10.75;;;;;;;8.59;40.18;97218.31;1710233;83;21157;-82
2021/03/21 07:30:02;;;;;;;15.13;10.18;;;;;;;8.38;40.29;97207.95;1722125;83;21567;-83
2021/03/21 07:32:46;;;;;;;14.78;10.48;;;;;;;8.44;41.49;97204.42;1727623;83;21191;-83
2021/03/21 07:35:36;;;;;;;16.23;9.88;;;;;;;8.59;39.21;97210.88;1724854;83;21533;-82
2021/03/21 07:38:28;;;;;;;15.60;10.80;;;;;;;8.69;40.62;97205.83;1726983;83;21605;-79
2021/03/21 07:41:10;;;;;;;19.70;11.22;;;;;;;8.46;40.09;97209.56;1718409;83;21195;-81
2021/03/21 07:44:12;;;;;;;17.32;12.37;;;;;;;8.62;39.78;97200.17;1724047;83;21168;-84
2021/03/21 07:47:02;;;;;;;17.45;10.93;;;;;;;8.84;39.56;97191.59;1708487;83;21145;-84
2021/03/21 07:49:59;;;;;;;19.42;11.73;;;;;;;9.05;39.84;97187.05;1703301;83;21569;-84
2021/03/21 07:52:54;;;;;;;23.35;10.95;;;;;;;9.00;38.46;97189.19;1750009;81;21159;-90
2021/03/21 07:55:58;;;;;;;17.40;10.03;;;;;;;8.83;39.40;97188.59;1713072;83;21151;-85
2021/03/21 07:58:50;;;;;;;13.93;9.35;;;;;;;8.48;38.77;97180.13;1708080;83;21202;-84
2021/03/21 08:01:20;;;;;;;14.87;10.43;;;;;;;7.73;37.79;97176.47;1720686;82;21562;-79
2021/03/21 08:04:02;;;;;;;20.48;12.35;;;;;;;7.16;38.28;97174.96;1799506;79;21120;-82
2021/03/21 08:06:44;;;;;;;16.90;11.63;;;;;;;6.63;38.10;97173.08;1731550;82;21159;-84
2021/03/21 08:09:32;;;;;;;18.65;12.93;;;;;;;6.76;38.62;97167.06;1789990;79;21111;-86
2021/03/21 08:12:24;;;;;;;19.87;13.60;;;;;;;6.62;39.44;97167.46;1753132;79;21144;-89
2021/03/21 08:15:17;;;;;;;10.68;7.60;;;;;;;6.71;38.98;97173.42;1805840;79;21597;-82
2021/03/21 08:18:11;;;;;;;15.70;11.55;;;;;;;6.99;39.35;97157.73;1723840;83;21185;-85
2021/03/21 08:20:41;;;;;;;18.82;13.22;;;;;;;6.24;38.54;97154.53;1799950;79;21593;-83
2021/03/21 08:23:26;;;;;;;18.92;13.45;;;;;;;5.81;38.94;97159.71;1806122;79;21128;-81
2021/03/21 08:25:59;;;;;;;13.85;8.53;;;;;;;5.59;38.54;97149.69;1723802;83;21126;-85
2021/03/21 08:28:36;;;;;;;18.42;12.47;;;;;;;5.67;39.84;97147.94;1802654;79;21615;-79
2021/03/21 08:31:11;;;;;;;17.12;10.05;;;;;;;5.84;40.28;97146.45;1790148;79;21578;-82
2021/03/21 08:33:45;;;;;;;16.82;10.78;;;;;;;6.06;40.31;97144.71;1790853;79;21136;-81
2021/03/21 08:36:23;;;;;;;21.30;12.28;;;;;;;5.89;40.38;97137.85;1778684;79;21127;-85
2021/03/21 08:39:02;;;;;;;23.83;12.82;;;;;;;5.98;40.70;97146.93;1725350;82;21589;-84
2021/03/21 08:41:35;;;;;;;11.78;8.23;;;;;;;5.91;40.98;97139.09;1728136;83;21582;-86
2021/03/21 08:44:06;;;;;;;15.70;8.50;;;;;;;6.21;41.10;97140.80;1802914;79;21160;-83
2021/03/21 08:46:34;;;;;;;23.70;14.10;;;;;;;6.23;40.72;97133.22;1712548;83;21549;-78
2021/03/21 08:49:08;;;;;;;12.55;8.55;;;;;;;5.69;39.40;97133.00;1790001;79;21184;-84
2021/03/21 08:51:42;;;;;;;18.02;8.98;;;;;;;5.34;39.75;97133.30;1782863;79;21151;-80
2021/03/21 08:54:27;;;;;;;20.02;14.83;;;;;;;4.98;40.86;97132.27;1801754;79;21124;-81
2021/03/21 08:57:07;;;;;;;16.60;12.30;;;;;;;4.82;41.37;97133.63;1791426;79;21654;-81
2021/03/21 08:59:39;;;;;;;18.17;11.78;;;;;;;5.13;42.02;97131.02;1793835;79;21138;-84
2021/03/21 09:02:15;;;;;;;17.90;12.98;;;;;;;5.26;42.07;97128.05;1803218;79;21132;-82
2021/03/21 09:05:06;;;;;;;17.95;12.85;;;;;;;5.30;42.04;97117.81;1799720;79;21124;-87
2021/03/21 09:07:39;;;;;;;20.20;12.75;;;;;;;5.36;42.32;97118.38;1723998;83;21570;-85
2021/03/21 09:10:24;;;;;;;22.52;14.58;;;;;;;5.31;42.19;97110.35;1734515;82;21123;-81
2021/03/21 09:13:13;;;;;;;19.00;12.20;;;;;;;5.30;42.29;97108.66;1799611;79;21592;-84
2021/03/21 09:15:47;;;;;;;18.73;13.00;;;;;;;5.42;42.51;97112.31;1729802;82;21151;-82
2021/03/21 09:18:23;;;;;;;21.37;13.18;;;;;;;5.33;42.58;97104.20;1731037;82;21150;-79
2021/03/21 09:21:17;;;;;;;16.70;12.60;;;;;;;5.32;42.77;97102.03;1734184;82;21148;-81
2021/03/21 09:26:50;;;;;;;12.88;9.50;;;;;;;5.31;42.01;97080.29;1927325;74;24885;-82
2021/03/21 09:29:31;;;;;;;9.23;4.45;;;;;;;4.99;42.36;97082.17;1901676;75;21273;-80
2021/03/21 09:32:26;;;;;;;18.32;11.90;;;;;;;4.79;42.17;97087.22;1899616;75;21240;-79
2021/03/21 09:35:14;;;;;;;17.73;10.90;;;;;;;4.40;43.39;97076.81;1893030;75;21147;-78
2021/03/21 09:37:42;;;;;;;22.98;10.63;;;;;;;4.29;43.19;97067.81;1827108;78;21573;-78
2021/03/21 09:40:41;;;;;;;18.35;13.03;;;;;;;4.42;43.56;97065.80;1831779;78;21069;-77
2021/03/21 09:43:13;;;;;;;20.15;13.13;;;;;;;4.44;43.36;97056.12;1807613;77;21155;-82
2021/03/21 09:45:46;;;;;;;20.97;13.20;;;;;;;4.51;43.88;97047.02;1844140;77;21131;-82
2021/03/21 09:48:22;;;;;;;18.57;12.63;;;;;;;4.58;43.42;97046.20;1845657;77;21136;-85
2021/03/21 09:51:18;;;;;;;21.82;12.28;;;;;;;4.50;43.42;97040.14;1823542;78;21115;-79
2021/03/21 09:54:36;;;;;;;11.53;8.33;;;;;;;4.69;44.23;97030.30;1768288;79;24359;-84
2021/03/21 09:57:21;;;;;;;18.02;11.95;;;;;;;4.71;43.08;97038.52;1727708;82;21263;-84
2021/03/21 10:00:03;;;;;;;10.75;7.03;;;;;;;4.70;43.62;97028.55;1742722;82;21109;-82
2021/03/21 10:02:51;;;;;;;19.02;12.43;;;;;;;4.63;42.80;97028.05;1749202;82;21133;-82
2021/03/21 10:05:37;;;;;;;18.62;11.88;;;;;;;4.63;43.87;97021.52;1730719;82;21144;-83
2021/03/21 10:08:12;;;;;;;18.98;12.60;;;;;;;4.85;44.20;97020.29;1713016;83;21143;-81
2021/03/21 10:11:01;;;;;;;17.23;10.72;;;;;;;5.06;43.28;97013.44;1710981;83;21141;-80
2021/03/21 10:13:37;;;;;;;18.60;13.45;;;;;;;5.03;43.01;97010.99;1645610;86;21636;-78
2021/03/21 10:16:28;;;;;;;19.77;13.08;;;;;;;5.02;43.36;97007.52;1636199;86;21179;-79
2021/03/21 10:19:07;;;;;;;19.23;12.80;;;;;;;5.00;41.84;97005.02;1698727;83;21152;-85
2021/03/21 10:21:39;;;;;;;20.08;10.85;;;;;;;5.07;41.52;96995.05;1703572;83;21442;-81
2021/03/21 10:24:32;;;;;;;19.77;11.70;;;;;;;5.33;43.31;96983.95;1811379;79;24781;-78
2021/03/21 10:27:24;;;;;;;24.02;14.40;;;;;;;5.32;42.79;96988.33;1708958;83;21617;-80
2021/03/21 10:30:19;;;;;;;15.25;7.78;;;;;;;5.27;42.58;96993.01;1699055;84;21171;-80
2021/03/21 10:33:04;;;;;;;19.00;13.53;;;;;;;5.22;42.34;96984.14;1728102;83;21161;-83
2021/03/21 10:35:43;;;;;;;20.02;12.98;;;;;;;5.18;43.11;96981.32;1734917;82;21154;-79
2021/03/21 10:38:47;;;;;;;14.45;9.88;;;;;;;5.22;43.21;96978.91;1732564;82;21155;-87
2021/03/21 10:41:57;;;;;;;19.10;12.23;;;;;;;5.36;43.56;96975.91;1735756;82;21653;-79
2021/03/21 10:44:36;;;;;;;20.50;13.93;;;;;;;5.38;43.33;96969.64;1735147;82;21195;-83
2021/03/21 10:47:11;;;;;;;17.98;11.57;;;;;;;5.55;43.46;96968.62;1734827;82;21146;-86
2021/03/21 10:49:55;;;;;;;17.65;12.07;;;;;;;5.62;43.31;96964.68;1736370;82;21193;-79
2021/03/21 10:52:44;;;;;;;20.80;13.30;;;;;;;5.71;43.48;96953.27;1737489;82;21170;-80
2021/03/21 10:55:20;;;;;;;15.15;10.00;;;;;;;5.88;44.10;96947.84;1725943;82;21193;-81
2021/03/21 10:57:50;;;;;;;17.60;12.33;;;;;;;6.04;43.39;96951.63;1735694;82;21209;-83
2021/03/21 11:00:30;;;;;;;25.72;13.58;;;;;;;6.08;42.39;96944.41;1737374;82;21246;-83
2021/03/21 11:03:15;;;;;;;22.25;12.63;;;;;;;6.19;42.32;96949.80;1923536;73;24706;-83
2021/03/21 11:05:46;;;;;;;17.40;12.65;;;;;;;6.08;42.70;96943.96;1881517;75;21076;-83
2021/03/21 11:08:20;;;;;;;12.00;9.18;;;;;;;6.12;42.56;96947.22;1865874;76;21660;-81
2021/03/21 11:10:55;;;;;;;15.20;10.93;;;;;;;6.16;42.94;96943.93;1862475;76;21132;-80
2021/03/21 11:13:35;;;;;;;17.73;11.80;;;;;;;6.07;42.10;96928.38;1861641;76;21139;-87
2021/03/21 11:16:17;;;;;;;18.67;13.28;;;;;;;6.07;42.08;96926.58;1865418;76;21116;-79
2021/03/21 11:18:49;;;;;;;18.77;12.58;;;;;;;6.04;42.89;96922.02;1863752;76;21588;-85
2021/03/21 11:21:23;;;;;;;19.17;12.85;;;;;;;6.10;42.60;96915.06;1867153;76;21139;-86
2021/03/21 11:24:02;;;;;;;12.73;8.43;;;;;;;6.20;41.40;96916.63;1867608;76;21106;-84
2021/03/21 11:26:56;;;;;;;22.85;12.28;;;;;;;6.36;42.56;96911.20;1866528;76;21113;-78
2021/03/21 11:29:32;;;;;;;19.10;12.60;;;;;;;6.25;41.66;96909.30;1596641;90;21173;-86
2021/03/21 11:32:23;;;;;;;18.05;11.83;;;;;;;6.37;42.47;96901.10;1596808;90;21206;-84
2021/03/21 11:35:08;;;;;;;16.82;12.35;;;;;;;6.53;41.85;96908.78;1594052;90;21193;-81
2021/03/21 11:37:39;;;;;;;17.07;11.28;;;;;;;6.69;42.60;96900.25;1596372;90;21197;-87
2021/03/21 11:40:24;;;;;;;20.72;13.08;;;;;;;6.77;41.85;96893.19;1595434;90;21213;-87
2021/03/21 11:43:25;;;;;;;20.30;13.13;;;;;;;6.66;39.35;96880.83;1596655;88;21613;-89
2021/03/21 11:45:54;;;;;;;16.82;11.90;;;;;;;6.75;40.06;96883.77;1592380;90;21207;-84
2021/03/21 11:48:36;;;;;;;19.32;12.60;;;;;;;6.89;41.36;96882.34;1570360;90;21631;-81
2021/03/21 11:51:05;;;;;;;15.88;11.45;;;;;;;7.01;41.98;96879.33;1596506;90;21205;-80
2021/03/21 11:53:37;;;;;;;16.27;12.13;;;;;;;7.13;41.54;96877.18;1571777;88;21267;-80
2021/03/21 11:56:26;;;;;;;15.68;11.68;;;;;;;7.21;41.76;96868.79;1598349;88;21162;-84
2021/03/21 11:59:04;;;;;;;16.82;11.83;;;;;;;7.22;41.73;96860.44;1589124;90;21225;-88
2021/03/21 12:01:43;;;;;;;13.03;10.08;;;;;;;7.12;38.68;96855.02;1596613;90;21153;-87
2021/03/21 12:04:31;;;;;;;16.20;12.25;;;;;;;7.10;40.39;96855.10;1596397;90;21600;-85
2021/03/21 12:07:01;;;;;;;19.77;13.32;;;;;;;6.93;39.08;96852.38;1592191;88;21204;-82
2021/03/21 12:09:50;;;;;;;23.02;13.78;;;;;;;6.94;40.95;96850.58;1605196;88;21191;-81
2021/03/21 12:12:41;;;;;;;19.12;13.90;;;;;;;6.95;41.61;96845.25;1599022;88;21185;-79
2021/03/21 12:15:27;;;;;;;20.82;13.70;;;;;;;6.90;40.65;96842.58;1613201;88;21198;-80
2021/03/21 12:18:09;;;;;;;25.52;15.00;;;;;;;6.91;42.01;96835.09;1607904;88;21634;-86
2021/03/21 12:20:43;;;;;;;21.15;13.10;;;;;;;6.97;41.41;96826.78;1602538;88;21608;-85
2021/03/21 12:23:31;;;;;;;13.45;8.05;;;;;;;7.01;42.23;96822.98;1609388;88;21219;-86
2021/03/21 12:26:10;;;;;;;22.48;14.63;;;;;;;7.07;42.13;96826.52;1612928;88;21705;-83
2021/03/21 12:28:51;;;;;;;18.57;13.53;;;;;;;6.90;41.16;96821.13;1621869;87;21211;-79
2021/03/21 12:31:39;;;;;;;19.77;13.98;;;;;;;6.86;41.19;96814.45;1833500;76;23959;-79
2021/03/21 12:34:39;;;;;;;15.78;11.68;;;;;;;6.76;42.19;96819.47;1860326;77;21270;-83
2021/03/21 12:37:19;;;;;;;13.08;8.38;;;;;;;6.73;41.48;96810.50;1860417;77;21142;-86
2021/03/21 12:40:10;;;;;;;19.25;12.82;;;;;;;6.77;40.91;96801.98;1860630;77;21124;-85
2021/03/21 12:42:45;;;;;;;16.60;12.00;;;;;;;6.80;42.50;96792.58;1790856;80;21149;-85
2021/03/21 12:45:28;;;;;;;13.83;10.53;;;;;;;6.84;42.14;96787.51;1794369;80;21155;-84